< < Back
Terminal Aerodrome Forecast


Current Version              Previous Versions:   1  2  3  4  5  6  7  8  9  

Terminal Aerodrome Forecast

786
FTUS42 KMLB 261132
TAFMCO
TAF
KMCO 261132Z 2612/2712 00000KT P6SM SCT100 BKN250
     FM261400 16006KT P6SM FEW030 BKN080
     FM261800 20010KT P6SM VCTS SCT030CB BKN060 BKN250
     FM270000 20005KT P6SM VCSH SCT040 OVC100
     FM270400 20008KT P6SM SCT030 OVC100=



Latest METAR

749
SAUS70 KWBC 261900 RRG
MTRMCO
METAR KMCO 261853Z 19014KT 10SM SCT043CB BKN100 BKN150 31/19 A2993 RMK
AO2 SLP135 CB N AND DSNT W MOV NE T03060189


USA.gov is the U.S. government's official web portal to all federal, state and local government web resources and services.